createdAt,value
2019-03-24T00:00:14.588Z,102464.00
2019-03-24T00:02:43.974Z,102474.00
2019-03-24T00:05:13.378Z,102469.00
2019-03-24T00:07:42.756Z,102474.00
2019-03-24T00:10:12.448Z,102462.00
2019-03-24T00:12:41.821Z,102475.00
2019-03-24T00:15:11.853Z,102476.00
2019-03-24T00:17:41.229Z,102471.00
2019-03-24T00:20:11.226Z,102468.00
2019-03-24T00:22:40.617Z,102480.00
2019-03-24T00:25:10.340Z,102478.00
2019-03-24T00:27:39.717Z,102476.00
2019-03-24T00:30:11.622Z,102484.00
2019-03-24T00:32:41.044Z,102487.00
2019-03-24T00:35:10.675Z,102478.00
2019-03-24T00:37:40.275Z,102478.00
2019-03-24T00:40:10.276Z,102477.00
2019-03-24T00:42:39.663Z,102476.00
2019-03-24T00:45:09.658Z,102475.00
2019-03-24T00:47:39.230Z,102482.00
2019-03-24T00:50:09.002Z,102486.00
2019-03-24T00:52:38.392Z,102488.00
2019-03-24T00:55:08.592Z,102488.00
2019-03-24T00:57:37.981Z,102486.00
2019-03-24T01:00:09.471Z,102490.00
2019-03-24T01:02:39.010Z,102481.00
2019-03-24T01:05:10.126Z,102489.00
2019-03-24T01:07:39.520Z,102477.00
2019-03-24T01:10:10.154Z,102483.00
2019-03-24T01:12:39.538Z,102471.00
2019-03-24T01:15:10.377Z,102467.00
2019-03-24T01:17:39.750Z,102471.00
2019-03-24T01:20:09.741Z,102470.00
2019-03-24T01:22:39.136Z,102475.00
2019-03-24T01:25:08.961Z,102464.00
2019-03-24T01:27:38.336Z,102463.00
2019-03-24T01:30:09.268Z,102474.00
2019-03-24T01:32:38.642Z,102462.00
2019-03-24T01:35:09.283Z,102456.00
2019-03-24T01:37:39.236Z,102455.00
2019-03-24T01:40:09.161Z,102447.00
2019-03-24T01:42:38.612Z,102420.00
2019-03-24T01:45:11.206Z,102459.00
2019-03-24T01:47:40.579Z,102458.00
2019-03-24T01:50:10.356Z,102462.00
2019-03-24T01:52:40.054Z,102458.00
2019-03-24T01:55:09.623Z,102441.00
2019-03-24T01:57:39.007Z,102453.00
2019-03-24T02:00:09.556Z,102446.00
2019-03-24T02:02:38.989Z,102443.00
2019-03-24T02:05:09.112Z,102443.00
2019-03-24T02:07:38.597Z,102442.00
2019-03-24T02:10:10.237Z,102440.00
2019-03-24T02:12:39.645Z,102442.00
2019-03-24T02:15:10.731Z,102441.00
2019-03-24T02:17:40.451Z,102437.00
2019-03-24T02:20:10.830Z,102439.00
2019-03-24T02:22:41.053Z,102429.00
2019-03-24T02:25:10.850Z,102431.00
2019-03-24T02:27:40.226Z,102430.00
2019-03-24T02:30:10.618Z,102431.00
2019-03-24T02:32:39.964Z,102440.00
2019-03-24T02:35:10.478Z,102433.00
2019-03-24T02:37:40.075Z,102437.00
2019-03-24T02:40:10.006Z,102434.00
2019-03-24T02:42:39.377Z,102431.00
2019-03-24T02:45:10.190Z,102438.00
2019-03-24T02:47:39.560Z,102427.00
2019-03-24T02:50:09.654Z,102426.00
2019-03-24T02:52:39.278Z,102414.00
2019-03-24T02:55:09.615Z,102421.00
2019-03-24T02:57:38.988Z,102412.00
2019-03-24T03:00:11.074Z,102421.00
2019-03-24T03:02:40.431Z,102424.00
2019-03-24T03:05:10.747Z,102424.00
2019-03-24T03:07:40.178Z,102422.00
2019-03-24T03:10:10.875Z,102426.00
2019-03-24T03:12:40.318Z,102432.00
2019-03-24T03:15:12.121Z,102435.00
2019-03-24T03:17:41.533Z,102432.00
2019-03-24T03:20:11.619Z,102429.00
2019-03-24T03:22:41.006Z,102432.00
2019-03-24T03:25:10.977Z,102433.00
2019-03-24T03:27:40.349Z,102427.00
2019-03-24T03:30:10.532Z,102428.00
2019-03-24T03:32:39.916Z,102417.00
2019-03-24T03:35:10.322Z,102431.00
2019-03-24T03:37:40.030Z,102416.00
2019-03-24T03:40:10.081Z,102426.00
2019-03-24T03:42:40.495Z,102423.00
2019-03-24T03:45:11.638Z,102424.00
2019-03-24T03:47:41.181Z,102418.00
2019-03-24T03:50:11.119Z,102416.00
2019-03-24T03:52:41.391Z,102415.00
2019-03-24T03:55:11.634Z,102411.00
2019-03-24T03:57:41.002Z,102418.00
2019-03-24T04:00:11.102Z,102417.00
2019-03-24T04:02:40.474Z,102411.00
2019-03-24T04:05:10.060Z,102406.00
2019-03-24T04:07:39.503Z,102392.00
2019-03-24T04:10:09.706Z,102406.00
2019-03-24T04:12:39.077Z,102400.00
2019-03-24T04:15:09.930Z,102411.00
2019-03-24T04:17:39.308Z,102403.00
2019-03-24T04:20:09.795Z,102408.00
2019-03-24T04:22:39.164Z,102414.00
2019-03-24T04:25:09.663Z,102409.00
2019-03-24T04:27:39.045Z,102410.00
2019-03-24T04:30:10.455Z,102409.00
2019-03-24T04:32:39.819Z,102406.00
2019-03-24T04:35:10.053Z,102400.00
2019-03-24T04:37:39.925Z,102405.00
2019-03-24T04:40:09.700Z,102396.00
2019-03-24T04:42:39.076Z,102405.00
2019-03-24T04:45:09.465Z,102406.00
2019-03-24T04:47:38.828Z,102404.00
2019-03-24T04:50:09.561Z,102408.00
2019-03-24T04:52:38.838Z,102409.00
2019-03-24T04:55:09.720Z,102398.00
2019-03-24T04:57:39.552Z,102393.00
2019-03-24T05:00:10.995Z,102396.00
2019-03-24T05:02:40.367Z,102400.00
2019-03-24T05:05:10.237Z,102386.00
2019-03-24T05:07:40.779Z,102382.00
2019-03-24T05:10:23.550Z,102390.00
2019-03-24T05:12:52.934Z,102390.00
2019-03-24T05:15:22.305Z,102395.00
2019-03-24T05:17:51.689Z,102381.00
2019-03-24T05:20:21.535Z,102373.00
2019-03-24T05:22:50.983Z,102390.00
2019-03-24T05:25:20.358Z,102383.00
2019-03-24T05:27:49.743Z,102386.00
2019-03-24T05:30:19.115Z,102371.00
2019-03-24T05:32:48.483Z,102371.00
2019-03-24T05:35:17.866Z,102385.00
2019-03-24T05:37:47.234Z,102378.00
2019-03-24T05:40:16.610Z,102383.00
2019-03-24T05:42:46.286Z,102396.00
2019-03-24T05:45:15.725Z,102381.00
2019-03-24T05:47:45.087Z,102387.00
2019-03-24T05:50:14.603Z,102396.00
2019-03-24T05:52:43.967Z,102389.00
2019-03-24T05:55:13.339Z,102394.00
2019-03-24T05:57:42.722Z,102396.00
2019-03-24T06:00:12.693Z,102387.00
2019-03-24T06:02:42.057Z,102388.00
2019-03-24T06:05:11.544Z,102385.00
2019-03-24T06:07:40.983Z,102385.00
2019-03-24T06:10:10.693Z,102384.00
2019-03-24T06:12:40.249Z,102376.00
2019-03-24T06:15:10.340Z,102373.00
2019-03-24T06:17:47.514Z,102381.00
2019-03-24T06:20:11.222Z,102373.00
2019-03-24T06:22:40.598Z,102377.00
2019-03-24T06:25:10.100Z,102369.00
2019-03-24T06:27:40.072Z,102375.00
2019-03-24T06:30:09.991Z,102363.00
2019-03-24T06:32:39.359Z,102362.00
2019-03-24T06:35:09.694Z,102365.00
2019-03-24T06:37:39.063Z,102364.00
2019-03-24T06:40:09.054Z,102359.00
2019-03-24T06:42:38.444Z,102356.00
2019-03-24T06:45:08.548Z,102354.00
2019-03-24T06:47:37.915Z,102355.00
2019-03-24T06:50:08.720Z,102355.00
2019-03-24T06:52:38.093Z,102354.00
2019-03-24T06:55:08.426Z,102356.00
2019-03-24T06:57:37.812Z,102363.00
2019-03-24T07:00:10.624Z,102355.00
2019-03-24T07:02:39.992Z,102365.00
2019-03-24T07:05:10.836Z,102366.00
2019-03-24T07:07:40.203Z,102355.00
2019-03-24T07:10:11.580Z,102355.00
2019-03-24T07:12:40.956Z,102351.00
2019-03-24T07:15:10.987Z,102350.00
2019-03-24T07:17:40.356Z,102343.00
2019-03-24T07:20:10.268Z,102351.00
2019-03-24T07:22:39.706Z,102356.00
2019-03-24T07:25:09.696Z,102365.00
2019-03-24T07:27:39.371Z,102358.00
2019-03-24T07:30:10.967Z,102353.00
2019-03-24T07:32:40.343Z,102343.00
2019-03-24T07:35:09.775Z,102342.00
2019-03-24T07:37:39.154Z,102351.00
2019-03-24T07:40:10.261Z,102343.00
2019-03-24T07:42:39.717Z,102334.00
2019-03-24T07:45:09.728Z,102346.00
2019-03-24T07:47:39.147Z,102344.00
2019-03-24T07:50:11.086Z,102343.00
2019-03-24T07:52:40.493Z,102351.00
2019-03-24T07:55:10.509Z,102355.00
2019-03-24T07:57:39.890Z,102348.00
2019-03-24T08:00:11.943Z,102352.00
2019-03-24T08:02:51.219Z,102351.00
2019-03-24T08:05:19.984Z,102351.00
2019-03-24T08:07:49.366Z,102349.00
2019-03-24T08:10:19.053Z,102348.00
2019-03-24T08:12:48.833Z,102347.00
2019-03-24T08:15:18.205Z,102355.00
2019-03-24T08:17:47.609Z,102346.00
2019-03-24T08:20:17.006Z,102339.00
2019-03-24T08:22:46.379Z,102341.00
2019-03-24T08:25:15.766Z,102331.00
2019-03-24T08:27:45.137Z,102331.00
2019-03-24T08:30:16.193Z,102320.00
2019-03-24T08:32:45.865Z,102323.00
2019-03-24T08:35:15.245Z,102308.00
2019-03-24T08:37:44.611Z,102312.00
2019-03-24T08:40:14.027Z,102298.00
2019-03-24T08:42:43.394Z,102293.00
2019-03-24T08:45:17.454Z,102278.00
2019-03-24T08:47:47.154Z,102288.00
2019-03-24T08:50:16.534Z,102292.00
2019-03-24T08:52:45.914Z,102286.00
2019-03-24T08:55:15.337Z,102279.00
2019-03-24T08:57:44.747Z,102275.00
2019-03-24T09:00:14.305Z,102278.00
2019-03-24T09:02:43.691Z,102278.00
2019-03-24T09:05:13.139Z,102261.00
2019-03-24T09:07:42.658Z,102261.00
2019-03-24T09:10:12.457Z,102272.00
2019-03-24T09:12:41.837Z,102264.00
2019-03-24T09:15:11.425Z,102254.00
2019-03-24T09:17:41.346Z,102234.00
2019-03-24T09:20:11.247Z,102232.00
2019-03-24T09:22:40.601Z,102225.00
2019-03-24T09:25:10.133Z,102238.00
2019-03-24T09:27:39.801Z,102237.00
2019-03-24T09:30:17.257Z,102232.00
2019-03-24T09:32:46.630Z,102230.00
2019-03-24T09:35:16.016Z,102232.00
2019-03-24T09:37:45.489Z,102225.00
2019-03-24T09:40:19.482Z,102219.00
2019-03-24T09:42:48.842Z,102216.00
2019-03-24T09:45:18.550Z,102212.00
2019-03-24T09:47:47.914Z,102212.00
2019-03-24T09:50:17.284Z,102223.00
2019-03-24T09:52:46.662Z,102215.00
2019-03-24T09:55:16.070Z,102212.00
2019-03-24T09:57:45.498Z,102212.00
2019-03-24T10:00:14.959Z,102214.00
2019-03-24T10:02:44.329Z,102202.00
2019-03-24T10:05:13.841Z,102208.00
2019-03-24T10:07:43.661Z,102198.00
2019-03-24T10:10:14.212Z,102198.00
2019-03-24T10:12:43.585Z,102200.00
2019-03-24T10:15:14.627Z,102195.00
2019-03-24T10:17:44.742Z,102184.00
2019-03-24T10:20:14.362Z,102184.00
2019-03-24T10:22:43.784Z,102173.00
2019-03-24T10:25:13.327Z,102163.00
2019-03-24T10:27:42.797Z,102155.00
2019-03-24T10:30:12.478Z,102161.00
2019-03-24T10:32:41.912Z,102167.00
2019-03-24T10:35:11.436Z,102173.00
2019-03-24T10:37:40.807Z,102166.00
2019-03-24T10:40:10.589Z,102162.00
2019-03-24T10:42:39.958Z,102159.00
2019-03-24T10:45:10.409Z,102165.00
2019-03-24T10:47:39.850Z,102159.00
2019-03-24T10:50:10.667Z,102156.00
2019-03-24T10:52:40.017Z,102148.00
2019-03-24T10:55:11.634Z,102138.00
2019-03-24T10:57:41.074Z,102138.00
2019-03-24T11:00:16.631Z,102142.00
2019-03-24T11:02:46.002Z,102122.00
2019-03-24T11:05:15.717Z,102121.00
2019-03-24T11:07:45.114Z,102118.00
2019-03-24T11:10:14.713Z,102102.00
2019-03-24T11:12:44.337Z,102113.00
2019-03-24T11:15:13.795Z,102100.00
2019-03-24T11:17:43.213Z,102097.00
2019-03-24T11:20:13.438Z,102091.00
2019-03-24T11:22:43.109Z,102088.00
2019-03-24T11:25:13.031Z,102084.00
2019-03-24T11:27:42.370Z,102081.00
2019-03-24T11:30:15.116Z,102070.00
2019-03-24T11:32:44.496Z,102071.00
2019-03-24T11:35:14.010Z,102069.00
2019-03-24T11:37:43.405Z,102061.00
2019-03-24T11:40:13.196Z,102049.00
2019-03-24T11:42:42.572Z,102057.00
2019-03-24T11:45:12.645Z,102057.00
2019-03-24T11:47:42.006Z,102057.00
2019-03-24T11:50:12.936Z,102053.00
2019-03-24T11:52:42.330Z,102052.00
2019-03-24T11:55:12.040Z,102048.00
2019-03-24T11:57:41.489Z,102045.00
2019-03-24T12:00:16.892Z,102041.00
2019-03-24T12:02:46.411Z,102030.00
2019-03-24T12:05:16.814Z,102024.00
2019-03-24T12:07:46.187Z,102024.00
2019-03-24T12:10:15.670Z,102017.00
2019-03-24T12:12:45.030Z,102014.00
2019-03-24T12:15:15.345Z,102002.00
2019-03-24T12:17:44.726Z,102011.00
2019-03-24T12:20:14.165Z,102006.00
2019-03-24T12:22:43.999Z,101986.00
2019-03-24T12:25:13.378Z,101995.00
2019-03-24T12:27:42.744Z,101977.00
2019-03-24T12:30:12.682Z,101975.00
2019-03-24T12:32:42.057Z,101970.00
2019-03-24T12:35:12.293Z,101964.00
2019-03-24T12:37:41.739Z,101963.00
2019-03-24T12:40:12.072Z,101957.00
2019-03-24T12:42:41.483Z,101945.00
2019-03-24T12:45:12.387Z,101946.00
2019-03-24T12:47:41.764Z,101938.00
2019-03-24T12:50:11.434Z,101933.00
2019-03-24T12:52:40.825Z,101936.00
2019-03-24T12:55:10.673Z,101930.00
2019-03-24T12:57:40.050Z,101925.00
2019-03-24T13:00:11.636Z,101923.00
2019-03-24T13:02:41.014Z,101908.00
2019-03-24T13:05:11.158Z,101900.00
2019-03-24T13:07:41.013Z,101896.00
2019-03-24T13:10:10.754Z,101907.00
2019-03-24T13:12:40.103Z,101899.00
2019-03-24T13:15:10.025Z,101901.00
2019-03-24T13:17:39.611Z,101903.00
2019-03-24T13:20:20.122Z,101887.00
2019-03-24T13:22:40.573Z,101888.00
2019-03-24T13:25:10.758Z,101883.00
2019-03-24T13:27:40.124Z,101876.00
2019-03-24T13:30:11.117Z,101881.00
2019-03-24T13:32:40.482Z,101881.00
2019-03-24T13:35:09.909Z,101872.00
2019-03-24T13:37:39.259Z,101870.00
2019-03-24T13:40:09.608Z,101874.00
2019-03-24T13:42:38.985Z,101878.00
2019-03-24T13:45:09.033Z,101883.00
2019-03-24T13:47:38.404Z,101857.00
2019-03-24T13:50:08.399Z,101851.00
2019-03-24T13:52:37.968Z,101855.00
2019-03-24T13:55:08.191Z,101861.00
2019-03-24T13:57:37.567Z,101850.00
2019-03-24T14:00:10.660Z,101852.00
2019-03-24T14:02:40.026Z,101855.00
2019-03-24T14:05:09.517Z,101857.00
2019-03-24T14:07:39.019Z,101849.00
2019-03-24T14:10:09.100Z,101836.00
2019-03-24T14:12:38.635Z,101837.00
2019-03-24T14:15:09.587Z,101829.00
2019-03-24T14:17:39.025Z,101842.00
2019-03-24T14:20:10.155Z,101837.00
2019-03-24T14:22:39.612Z,101830.00
2019-03-24T14:25:09.323Z,101825.00
2019-03-24T14:27:38.717Z,101829.00
2019-03-24T14:30:09.777Z,101825.00
2019-03-24T14:32:39.142Z,101828.00
2019-03-24T14:35:08.774Z,101826.00
2019-03-24T14:37:38.224Z,101823.00
2019-03-24T14:40:08.873Z,101816.00
2019-03-24T14:42:38.252Z,101817.00
2019-03-24T14:45:09.540Z,101808.00
2019-03-24T14:47:39.382Z,101818.00
2019-03-24T14:50:09.366Z,101807.00
2019-03-24T14:52:39.028Z,101817.00
2019-03-24T14:55:09.141Z,101807.00
2019-03-24T14:57:38.505Z,101813.00
2019-03-24T15:00:10.022Z,101793.00
2019-03-24T15:02:40.846Z,101801.00
2019-03-24T15:05:11.180Z,101804.00
2019-03-24T15:07:40.608Z,101800.00
2019-03-24T15:10:10.282Z,101804.00
2019-03-24T15:12:39.656Z,101804.00
2019-03-24T15:15:09.179Z,101796.00
2019-03-24T15:17:38.552Z,101794.00
2019-03-24T15:20:09.354Z,101801.00
2019-03-24T15:22:38.812Z,101800.00
2019-03-24T15:25:09.141Z,101805.00
2019-03-24T15:27:38.514Z,101809.00
2019-03-24T15:30:10.475Z,101801.00
2019-03-24T15:32:39.848Z,101795.00
2019-03-24T15:35:09.379Z,101797.00
2019-03-24T15:37:38.848Z,101797.00
2019-03-24T15:40:09.456Z,101802.00
2019-03-24T15:42:38.806Z,101796.00
2019-03-24T15:45:10.514Z,101790.00
2019-03-24T15:47:39.886Z,101790.00
2019-03-24T15:50:10.462Z,101787.00
2019-03-24T15:52:40.104Z,101777.00
2019-03-24T15:55:09.610Z,101779.00
2019-03-24T15:57:39.003Z,101777.00
2019-03-24T16:00:11.189Z,101768.00
2019-03-24T16:02:40.737Z,101757.00
2019-03-24T16:05:10.528Z,101756.00
2019-03-24T16:07:39.937Z,101754.00
2019-03-24T16:10:09.756Z,101759.00
2019-03-24T16:12:39.131Z,101753.00
2019-03-24T16:15:09.831Z,101761.00
2019-03-24T16:17:39.193Z,101761.00
2019-03-24T16:20:09.215Z,101770.00
2019-03-24T16:22:38.900Z,101757.00
2019-03-24T16:25:09.812Z,101747.00
2019-03-24T16:27:39.181Z,101737.00
2019-03-24T16:30:09.592Z,101740.00
2019-03-24T16:32:38.963Z,101742.00
2019-03-24T16:35:09.259Z,101743.00
2019-03-24T16:37:38.910Z,101736.00
2019-03-24T16:40:09.088Z,101735.00
2019-03-24T16:42:38.450Z,101728.00
2019-03-24T16:45:08.739Z,101725.00
2019-03-24T16:47:38.104Z,101715.00
2019-03-24T16:50:08.793Z,101718.00
2019-03-24T16:52:39.277Z,101721.00
2019-03-24T16:55:12.094Z,101731.00
2019-03-24T16:57:40.816Z,101723.00
2019-03-24T17:00:10.673Z,101736.00
2019-03-24T17:02:40.086Z,101723.00
2019-03-24T17:05:09.832Z,101720.00
2019-03-24T17:07:39.288Z,101721.00
2019-03-24T17:10:09.808Z,101710.00
2019-03-24T17:12:39.191Z,101719.00
2019-03-24T17:15:11.259Z,101718.00
2019-03-24T17:17:40.623Z,101726.00
2019-03-24T17:20:10.741Z,101716.00
2019-03-24T17:22:40.140Z,101717.00
2019-03-24T17:25:10.821Z,101716.00
2019-03-24T17:27:41.547Z,101720.00
2019-03-24T17:30:12.943Z,101710.00
2019-03-24T17:32:42.317Z,101721.00
2019-03-24T17:35:12.434Z,101714.00
2019-03-24T17:37:41.825Z,101715.00
2019-03-24T17:40:12.553Z,101708.00
2019-03-24T17:42:41.980Z,101707.00
2019-03-24T17:45:12.852Z,101694.00
2019-03-24T17:47:42.225Z,101697.00
2019-03-24T17:50:13.751Z,101700.00
2019-03-24T17:52:43.477Z,101699.00
2019-03-24T17:55:13.068Z,101704.00
2019-03-24T17:57:42.441Z,101694.00
2019-03-24T18:00:17.925Z,101684.00
2019-03-24T18:02:47.301Z,101693.00
2019-03-24T18:05:16.890Z,101689.00
2019-03-24T18:07:46.317Z,101683.00
2019-03-24T18:10:16.115Z,101689.00
2019-03-24T18:12:45.513Z,101687.00
2019-03-24T18:15:16.380Z,101696.00
2019-03-24T18:17:45.766Z,101688.00
2019-03-24T18:20:19.839Z,101684.00
2019-03-24T18:22:49.678Z,101683.00
2019-03-24T18:25:19.053Z,101673.00
2019-03-24T18:27:48.422Z,101665.00
2019-03-24T18:30:19.448Z,101669.00
2019-03-24T18:32:48.811Z,101668.00
2019-03-24T18:35:18.259Z,101666.00
2019-03-24T18:37:47.643Z,101663.00
2019-03-24T18:40:18.321Z,101671.00
2019-03-24T18:42:47.682Z,101669.00
2019-03-24T18:45:19.101Z,101673.00
2019-03-24T18:47:48.488Z,101671.00
2019-03-24T18:50:18.206Z,101670.00
2019-03-24T18:52:50.041Z,101670.00
2019-03-24T18:55:18.879Z,101666.00
2019-03-24T18:57:48.250Z,101658.00
2019-03-24T19:00:18.263Z,101654.00
2019-03-24T19:02:47.637Z,101650.00
2019-03-24T19:05:18.610Z,101652.00
2019-03-24T19:07:48.463Z,101656.00
2019-03-24T19:10:17.971Z,101654.00
2019-03-24T19:12:47.342Z,101648.00
2019-03-24T19:15:17.439Z,101640.00
2019-03-24T19:17:46.853Z,101630.00
2019-03-24T19:20:17.823Z,101640.00
2019-03-24T19:22:47.469Z,101629.00
2019-03-24T19:25:16.845Z,101624.00
2019-03-24T19:27:46.223Z,101624.00
2019-03-24T19:30:18.765Z,101626.00
2019-03-24T19:32:49.330Z,101624.00
2019-03-24T19:35:18.704Z,101632.00
2019-03-24T19:37:48.087Z,101629.00
2019-03-24T19:40:31.601Z,101623.00
2019-03-24T19:43:01.008Z,101626.00
2019-03-24T19:45:30.382Z,101625.00
2019-03-24T19:47:59.758Z,101627.00
2019-03-24T19:50:29.437Z,101614.00
2019-03-24T19:52:58.812Z,101605.00
2019-03-24T19:55:28.250Z,101604.00
2019-03-24T19:57:58.020Z,101595.00
2019-03-24T20:00:27.463Z,101587.00
2019-03-24T20:02:56.835Z,101594.00
2019-03-24T20:05:27.001Z,101591.00
2019-03-24T20:07:56.433Z,101582.00
2019-03-24T20:10:25.806Z,101583.00
2019-03-24T20:12:55.515Z,101592.00
2019-03-24T20:15:24.902Z,101585.00
2019-03-24T20:17:54.280Z,101595.00
2019-03-24T20:20:23.662Z,101585.00
2019-03-24T20:22:56.840Z,101579.00
2019-03-24T20:25:24.128Z,101574.00
2019-03-24T20:27:53.514Z,101572.00
2019-03-24T20:30:22.891Z,101561.00
2019-03-24T20:32:52.263Z,101561.00
2019-03-24T20:35:22.802Z,101554.00
2019-03-24T20:37:52.147Z,101558.00
2019-03-24T20:40:21.527Z,101554.00
2019-03-24T20:42:50.976Z,101546.00
2019-03-24T20:45:20.353Z,101550.00
2019-03-24T20:47:49.735Z,101554.00
2019-03-24T20:50:19.165Z,101555.00
2019-03-24T20:52:48.586Z,101545.00
2019-03-24T20:55:17.947Z,101543.00
2019-03-24T20:57:47.635Z,101533.00
2019-03-24T21:00:21.875Z,101534.00
2019-03-24T21:02:50.528Z,101538.00
2019-03-24T21:05:19.857Z,101534.00
2019-03-24T21:07:49.224Z,101539.00
2019-03-24T21:10:18.602Z,101527.00
2019-03-24T21:12:48.221Z,101532.00
2019-03-24T21:15:17.605Z,101532.00
2019-03-24T21:17:46.970Z,101530.00
2019-03-24T21:20:16.361Z,101532.00
2019-03-24T21:22:45.740Z,101522.00
2019-03-24T21:25:15.124Z,101517.00
2019-03-24T21:27:44.514Z,101516.00
2019-03-24T21:30:15.200Z,101518.00
2019-03-24T21:32:44.604Z,101512.00
2019-03-24T21:35:14.223Z,101512.00
2019-03-24T21:37:44.480Z,101506.00
2019-03-24T21:40:13.861Z,101504.00
2019-03-24T21:42:43.253Z,101507.00
2019-03-24T21:45:12.958Z,101506.00
2019-03-24T21:47:42.300Z,101500.00
2019-03-24T21:50:11.842Z,101501.00
2019-03-24T21:52:41.213Z,101496.00
2019-03-24T21:55:10.827Z,101495.00
2019-03-24T21:57:40.250Z,101499.00
2019-03-24T22:00:10.132Z,101489.00
2019-03-24T22:02:39.533Z,101486.00
2019-03-24T22:05:09.146Z,101488.00
2019-03-24T22:07:38.524Z,101477.00
2019-03-24T22:10:08.991Z,101474.00
2019-03-24T22:12:38.380Z,101448.00
2019-03-24T22:15:09.958Z,101459.00
2019-03-24T22:17:39.330Z,101462.00
2019-03-24T22:20:09.257Z,101458.00
2019-03-24T22:25:14.749Z,101444.00
2019-03-24T22:27:44.115Z,101448.00
2019-03-24T22:30:16.434Z,101439.00
2019-03-24T22:32:45.815Z,101439.00
2019-03-24T22:35:15.218Z,101439.00
2019-03-24T22:37:44.861Z,101434.00
2019-03-24T22:40:14.919Z,101431.00
2019-03-24T22:42:44.551Z,101429.00
2019-03-24T22:45:14.255Z,101420.00
2019-03-24T22:47:43.635Z,101426.00
2019-03-24T22:50:13.219Z,101422.00
2019-03-24T22:52:42.591Z,101418.00
2019-03-24T22:55:12.889Z,101414.00
2019-03-24T22:57:42.265Z,101410.00
2019-03-24T23:00:15.877Z,101401.00
2019-03-24T23:02:45.433Z,101396.00
2019-03-24T23:05:14.811Z,101393.00
2019-03-24T23:07:44.188Z,101398.00
2019-03-24T23:10:13.777Z,101395.00
2019-03-24T23:12:43.147Z,101396.00
2019-03-24T23:15:12.589Z,101384.00
2019-03-24T23:17:42.054Z,101390.00
2019-03-24T23:20:11.720Z,101387.00
2019-03-24T23:22:41.068Z,101383.00
2019-03-24T23:25:10.795Z,101382.00
2019-03-24T23:27:40.159Z,101373.00
2019-03-24T23:30:10.575Z,101377.00
2019-03-24T23:32:39.988Z,101371.00
2019-03-24T23:35:09.761Z,101375.00
2019-03-24T23:37:39.133Z,101361.00
2019-03-24T23:40:11.396Z,101352.00
2019-03-24T23:42:41.039Z,101349.00
2019-03-24T23:45:11.057Z,101348.00
2019-03-24T23:47:40.737Z,101342.00
2019-03-24T23:50:11.311Z,101341.00
2019-03-24T23:52:40.672Z,101345.00
2019-03-24T23:55:11.741Z,101329.00
2019-03-24T23:57:41.355Z,101325.00
